Kezdőlap
METAR-TAF:

METAR-TAF

Repülőterek :

Independence Municipal Airport

Independence, Iowa, Amerikai Egyesült Államok

földrajzi szélesség: 42-27N, földrajzi hosszúság: 091-56W, magasság: 298 m

Jelenlegi meteorológiai megfigyelések

A jelentés 11 perccel ezelõtt készült, 16:15 UTC
Kelet-északkeleti szél 7 kt széllökések: 14 kt
Hőmérséklet 13°C
Páratartalom 33%
Légköri nyomás 1029 hPa
Látótávolság: 16.1 km
Derült ég

METAR: KIIB 111615Z AUTO 07007G14KT 10SM CLR 13/M03 A3039 RMK AO2 T01261032

Idő: 11:26 (16:26 UTC)


TAF: hiányzik

Meteorológiai megfigyelések és előrejelzések több, mint 4000 repülőtéren (METAR és TAF jelentéseket).

A térképen piros és sárga pontok jelzik az elérhető meteorológiai állomásokat.

Mozgassa az egeret a pont fölött, hogy megjelenjen az állomás neve.

Azután kattintson az időjárási megfigyelések és előrejelzések megtekintéséhez.

A térkép megváltoztatása: kattintson a fekete keresztel jelölt zöld gombra ráközelítéshez, a vonallal jelölt zöld gombra távolításhoz, vagy a zöld nyilakra a szomszédos térképek eléréséhez.


METAR-TAF: